sensor_id;sensor_type;location;lat;lon;timestamp;P1;durP1;ratioP1;P2;durP2;ratioP2
15876;SDS011;8037;51.666;7.834;2023-05-16T00:00:16;4.50;;;2.90;;
15876;SDS011;8037;51.666;7.834;2023-05-16T00:02:42;6.60;;;3.70;;
15876;SDS011;8037;51.666;7.834;2023-05-16T00:05:08;3.90;;;3.60;;
15876;SDS011;8037;51.666;7.834;2023-05-16T00:07:43;6.90;;;4.40;;
15876;SDS011;8037;51.666;7.834;2023-05-16T00:10:10;4.97;;;4.07;;
15876;SDS011;8037;51.666;7.834;2023-05-16T00:12:36;3.70;;;3.40;;
15876;SDS011;8037;51.666;7.834;2023-05-16T00:15:03;6.50;;;3.70;;
15876;SDS011;8037;51.666;7.834;2023-05-16T00:17:30;7.57;;;4.47;;
15876;SDS011;8037;51.666;7.834;2023-05-16T00:19:56;4.10;;;3.70;;
15876;SDS011;8037;51.666;7.834;2023-05-16T00:22:25;5.20;;;2.90;;
15876;SDS011;8037;51.666;7.834;2023-05-16T00:24:51;5.13;;;4.50;;
15876;SDS011;8037;51.666;7.834;2023-05-16T00:27:17;4.97;;;4.17;;
15876;SDS011;8037;51.666;7.834;2023-05-16T00:29:43;5.70;;;4.37;;
15876;SDS011;8037;51.666;7.834;2023-05-16T00:32:09;4.80;;;3.50;;
15876;SDS011;8037;51.666;7.834;2023-05-16T00:34:35;3.57;;;2.97;;
15876;SDS011;8037;51.666;7.834;2023-05-16T00:37:01;11.07;;;4.77;;
15876;SDS011;8037;51.666;7.834;2023-05-16T00:39:27;6.70;;;4.90;;
15876;SDS011;8037;51.666;7.834;2023-05-16T00:41:54;3.93;;;3.63;;
15876;SDS011;8037;51.666;7.834;2023-05-16T00:44:21;3.40;;;3.10;;
15876;SDS011;8037;51.666;7.834;2023-05-16T00:46:47;8.13;;;4.30;;
15876;SDS011;8037;51.666;7.834;2023-05-16T00:49:13;5.87;;;5.20;;
15876;SDS011;8037;51.666;7.834;2023-05-16T00:51:39;3.87;;;3.40;;
15876;SDS011;8037;51.666;7.834;2023-05-16T00:54:05;5.30;;;4.30;;
15876;SDS011;8037;51.666;7.834;2023-05-16T00:56:32;4.87;;;4.40;;
15876;SDS011;8037;51.666;7.834;2023-05-16T00:58:58;6.27;;;4.33;;
15876;SDS011;8037;51.666;7.834;2023-05-16T01:01:24;8.87;;;5.00;;
15876;SDS011;8037;51.666;7.834;2023-05-16T01:03:51;5.20;;;4.00;;
15876;SDS011;8037;51.666;7.834;2023-05-16T01:06:17;3.53;;;3.20;;
15876;SDS011;8037;51.666;7.834;2023-05-16T01:08:43;5.70;;;3.67;;
15876;SDS011;8037;51.666;7.834;2023-05-16T01:16:12;4.40;;;3.70;;
15876;SDS011;8037;51.666;7.834;2023-05-16T01:18:41;4.03;;;3.70;;
15876;SDS011;8037;51.666;7.834;2023-05-16T01:21:18;4.47;;;3.30;;
15876;SDS011;8037;51.666;7.834;2023-05-16T01:23:50;5.77;;;4.03;;
15876;SDS011;8037;51.666;7.834;2023-05-16T01:26:35;3.87;;;3.47;;
15876;SDS011;8037;51.666;7.834;2023-05-16T01:29:01;4.30;;;3.03;;
15876;SDS011;8037;51.666;7.834;2023-05-16T01:31:28;3.53;;;3.33;;
15876;SDS011;8037;51.666;7.834;2023-05-16T01:33:54;22.47;;;4.30;;
15876;SDS011;8037;51.666;7.834;2023-05-16T01:36:24;6.90;;;3.67;;
15876;SDS011;8037;51.666;7.834;2023-05-16T01:39:04;3.70;;;3.40;;
15876;SDS011;8037;51.666;7.834;2023-05-16T01:44:01;3.40;;;3.17;;
15876;SDS011;8037;51.666;7.834;2023-05-16T01:46:31;4.77;;;2.90;;
15876;SDS011;8037;51.666;7.834;2023-05-16T01:49:07;2.13;;;2.00;;
15876;SDS011;8037;51.666;7.834;2023-05-16T01:51:40;7.93;;;1.80;;
15876;SDS011;8037;51.666;7.834;2023-05-16T01:54:08;1.57;;;1.47;;
15876;SDS011;8037;51.666;7.834;2023-05-16T01:56:36;1.00;;;0.90;;
15876;SDS011;8037;51.666;7.834;2023-05-16T01:59:02;0.60;;;0.60;;
15876;SDS011;8037;51.666;7.834;2023-05-16T02:01:29;1.33;;;0.90;;
15876;SDS011;8037;51.666;7.834;2023-05-16T02:03:55;0.67;;;0.50;;
15876;SDS011;8037;51.666;7.834;2023-05-16T02:06:21;0.70;;;0.40;;
15876;SDS011;8037;51.666;7.834;2023-05-16T02:08:49;0.73;;;0.50;;
15876;SDS011;8037;51.666;7.834;2023-05-16T02:11:16;0.60;;;0.50;;
15876;SDS011;8037;51.666;7.834;2023-05-16T02:13:42;0.50;;;0.50;;
15876;SDS011;8037;51.666;7.834;2023-05-16T02:16:09;0.50;;;0.40;;
15876;SDS011;8037;51.666;7.834;2023-05-16T02:18:35;0.60;;;0.60;;
15876;SDS011;8037;51.666;7.834;2023-05-16T02:21:01;0.60;;;0.60;;
15876;SDS011;8037;51.666;7.834;2023-05-16T02:23:27;1.10;;;0.60;;
15876;SDS011;8037;51.666;7.834;2023-05-16T02:25:53;0.63;;;0.60;;
15876;SDS011;8037;51.666;7.834;2023-05-16T02:28:19;1.33;;;0.97;;
15876;SDS011;8037;51.666;7.834;2023-05-16T02:30:45;0.57;;;0.50;;
15876;SDS011;8037;51.666;7.834;2023-05-16T02:33:19;4.20;;;0.60;;
15876;SDS011;8037;51.666;7.834;2023-05-16T02:35:45;2.53;;;0.70;;
15876;SDS011;8037;51.666;7.834;2023-05-16T02:38:11;3.17;;;0.93;;
15876;SDS011;8037;51.666;7.834;2023-05-16T02:40:41;3.60;;;1.27;;
15876;SDS011;8037;51.666;7.834;2023-05-16T02:43:07;0.60;;;0.60;;
15876;SDS011;8037;51.666;7.834;2023-05-16T02:45:34;2.57;;;2.10;;
15876;SDS011;8037;51.666;7.834;2023-05-16T02:48:00;1.97;;;1.30;;
15876;SDS011;8037;51.666;7.834;2023-05-16T02:50:26;1.30;;;1.20;;
15876;SDS011;8037;51.666;7.834;2023-05-16T02:52:52;1.07;;;0.97;;
15876;SDS011;8037;51.666;7.834;2023-05-16T02:55:18;1.57;;;1.10;;
15876;SDS011;8037;51.666;7.834;2023-05-16T02:57:43;2.33;;;1.73;;
15876;SDS011;8037;51.666;7.834;2023-05-16T03:00:10;2.83;;;1.10;;
15876;SDS011;8037;51.666;7.834;2023-05-16T03:02:36;4.40;;;2.07;;
15876;SDS011;8037;51.666;7.834;2023-05-16T03:05:02;1.40;;;1.30;;
15876;SDS011;8037;51.666;7.834;2023-05-16T03:07:29;1.90;;;1.30;;
15876;SDS011;8037;51.666;7.834;2023-05-16T03:09:55;5.47;;;1.57;;
15876;SDS011;8037;51.666;7.834;2023-05-16T03:12:21;4.90;;;1.27;;
15876;SDS011;8037;51.666;7.834;2023-05-16T03:14:47;1.73;;;1.17;;
15876;SDS011;8037;51.666;7.834;2023-05-16T03:17:13;2.17;;;1.80;;
15876;SDS011;8037;51.666;7.834;2023-05-16T03:19:39;6.70;;;2.23;;
15876;SDS011;8037;51.666;7.834;2023-05-16T03:22:04;4.73;;;2.67;;
15876;SDS011;8037;51.666;7.834;2023-05-16T03:24:30;2.40;;;1.67;;
15876;SDS011;8037;51.666;7.834;2023-05-16T03:26:56;3.97;;;1.50;;
15876;SDS011;8037;51.666;7.834;2023-05-16T03:29:23;1.17;;;0.90;;
15876;SDS011;8037;51.666;7.834;2023-05-16T03:31:50;4.43;;;1.83;;
15876;SDS011;8037;51.666;7.834;2023-05-16T03:34:16;7.47;;;2.10;;
15876;SDS011;8037;51.666;7.834;2023-05-16T03:36:42;9.73;;;2.40;;
15876;SDS011;8037;51.666;7.834;2023-05-16T03:39:08;7.20;;;2.20;;
15876;SDS011;8037;51.666;7.834;2023-05-16T03:41:35;4.50;;;1.70;;
15876;SDS011;8037;51.666;7.834;2023-05-16T03:44:01;9.63;;;1.67;;
15876;SDS011;8037;51.666;7.834;2023-05-16T03:46:27;8.20;;;2.23;;
15876;SDS011;8037;51.666;7.834;2023-05-16T03:48:53;3.60;;;1.87;;
15876;SDS011;8037;51.666;7.834;2023-05-16T03:51:19;3.50;;;1.47;;
15876;SDS011;8037;51.666;7.834;2023-05-16T03:53:45;4.30;;;1.47;;
15876;SDS011;8037;51.666;7.834;2023-05-16T03:56:11;8.50;;;3.53;;
15876;SDS011;8037;51.666;7.834;2023-05-16T03:58:37;4.30;;;1.47;;
15876;SDS011;8037;51.666;7.834;2023-05-16T04:01:03;3.23;;;1.00;;
15876;SDS011;8037;51.666;7.834;2023-05-16T04:03:29;10.17;;;1.17;;
15876;SDS011;8037;51.666;7.834;2023-05-16T04:05:55;6.63;;;1.40;;
15876;SDS011;8037;51.666;7.834;2023-05-16T04:08:21;7.67;;;1.70;;
15876;SDS011;8037;51.666;7.834;2023-05-16T04:10:47;5.70;;;1.47;;
15876;SDS011;8037;51.666;7.834;2023-05-16T04:13:13;2.97;;;1.03;;
15876;SDS011;8037;51.666;7.834;2023-05-16T04:15:40;3.33;;;1.10;;
15876;SDS011;8037;51.666;7.834;2023-05-16T04:18:07;10.77;;;1.80;;
15876;SDS011;8037;51.666;7.834;2023-05-16T04:20:33;15.43;;;1.77;;
15876;SDS011;8037;51.666;7.834;2023-05-16T04:23:00;8.30;;;1.50;;
15876;SDS011;8037;51.666;7.834;2023-05-16T04:25:26;2.33;;;1.10;;
15876;SDS011;8037;51.666;7.834;2023-05-16T04:27:52;6.77;;;1.33;;
15876;SDS011;8037;51.666;7.834;2023-05-16T04:30:18;21.27;;;2.17;;
15876;SDS011;8037;51.666;7.834;2023-05-16T04:32:44;7.70;;;2.00;;
15876;SDS011;8037;51.666;7.834;2023-05-16T04:35:10;2.60;;;1.87;;
15876;SDS011;8037;51.666;7.834;2023-05-16T04:37:37;5.00;;;1.77;;
15876;SDS011;8037;51.666;7.834;2023-05-16T04:40:03;3.50;;;1.60;;
15876;SDS011;8037;51.666;7.834;2023-05-16T04:42:31;22.10;;;2.07;;
15876;SDS011;8037;51.666;7.834;2023-05-16T04:44:57;8.90;;;1.50;;
15876;SDS011;8037;51.666;7.834;2023-05-16T04:47:23;1.00;;;0.90;;
15876;SDS011;8037;51.666;7.834;2023-05-16T04:49:49;1.63;;;1.37;;
15876;SDS011;8037;51.666;7.834;2023-05-16T04:52:15;4.87;;;2.97;;
15876;SDS011;8037;51.666;7.834;2023-05-16T04:54:41;5.30;;;1.53;;
15876;SDS011;8037;51.666;7.834;2023-05-16T04:57:07;3.93;;;1.50;;
15876;SDS011;8037;51.666;7.834;2023-05-16T04:59:33;4.77;;;1.83;;
15876;SDS011;8037;51.666;7.834;2023-05-16T05:01:59;4.37;;;2.03;;
15876;SDS011;8037;51.666;7.834;2023-05-16T05:04:25;21.90;;;2.77;;
15876;SDS011;8037;51.666;7.834;2023-05-16T05:06:51;7.70;;;1.40;;
15876;SDS011;8037;51.666;7.834;2023-05-16T05:09:16;8.70;;;1.63;;
15876;SDS011;8037;51.666;7.834;2023-05-16T05:11:42;5.07;;;1.53;;
15876;SDS011;8037;51.666;7.834;2023-05-16T05:14:08;3.67;;;1.63;;
15876;SDS011;8037;51.666;7.834;2023-05-16T05:16:34;3.70;;;1.00;;
15876;SDS011;8037;51.666;7.834;2023-05-16T05:19:01;5.03;;;1.47;;
15876;SDS011;8037;51.666;7.834;2023-05-16T05:21:27;10.60;;;1.67;;
15876;SDS011;8037;51.666;7.834;2023-05-16T05:23:54;6.20;;;1.10;;
15876;SDS011;8037;51.666;7.834;2023-05-16T05:26:20;6.50;;;1.57;;
15876;SDS011;8037;51.666;7.834;2023-05-16T05:28:47;5.80;;;1.60;;
15876;SDS011;8037;51.666;7.834;2023-05-16T05:31:13;6.40;;;1.90;;
15876;SDS011;8037;51.666;7.834;2023-05-16T05:33:39;4.00;;;1.63;;
15876;SDS011;8037;51.666;7.834;2023-05-16T05:36:06;2.43;;;1.10;;
15876;SDS011;8037;51.666;7.834;2023-05-16T05:38:32;5.50;;;1.77;;
15876;SDS011;8037;51.666;7.834;2023-05-16T05:40:58;9.57;;;2.47;;
15876;SDS011;8037;51.666;7.834;2023-05-16T05:43:24;6.93;;;2.43;;
15876;SDS011;8037;51.666;7.834;2023-05-16T05:45:50;4.03;;;1.50;;
15876;SDS011;8037;51.666;7.834;2023-05-16T05:48:16;4.00;;;1.60;;
15876;SDS011;8037;51.666;7.834;2023-05-16T05:50:42;7.97;;;2.03;;
15876;SDS011;8037;51.666;7.834;2023-05-16T05:53:08;7.77;;;2.00;;
15876;SDS011;8037;51.666;7.834;2023-05-16T05:55:34;4.73;;;1.90;;
15876;SDS011;8037;51.666;7.834;2023-05-16T05:58:00;4.53;;;1.93;;
15876;SDS011;8037;51.666;7.834;2023-05-16T06:00:26;7.40;;;1.50;;
15876;SDS011;8037;51.666;7.834;2023-05-16T06:02:53;6.00;;;1.17;;
15876;SDS011;8037;51.666;7.834;2023-05-16T06:05:19;6.13;;;1.47;;
15876;SDS011;8037;51.666;7.834;2023-05-16T06:07:44;24.63;;;2.00;;
15876;SDS011;8037;51.666;7.834;2023-05-16T06:10:10;3.80;;;1.63;;
15876;SDS011;8037;51.666;7.834;2023-05-16T06:12:36;10.20;;;1.70;;
15876;SDS011;8037;51.666;7.834;2023-05-16T06:15:02;8.20;;;1.83;;
15876;SDS011;8037;51.666;7.834;2023-05-16T06:17:28;4.60;;;1.50;;
15876;SDS011;8037;51.666;7.834;2023-05-16T06:19:54;10.70;;;2.47;;
15876;SDS011;8037;51.666;7.834;2023-05-16T06:22:20;6.07;;;1.67;;
15876;SDS011;8037;51.666;7.834;2023-05-16T06:24:46;5.40;;;2.00;;
15876;SDS011;8037;51.666;7.834;2023-05-16T06:27:12;7.30;;;1.50;;
15876;SDS011;8037;51.666;7.834;2023-05-16T06:29:38;6.47;;;1.60;;
15876;SDS011;8037;51.666;7.834;2023-05-16T06:32:04;4.63;;;2.30;;
15876;SDS011;8037;51.666;7.834;2023-05-16T06:34:30;7.03;;;2.00;;
15876;SDS011;8037;51.666;7.834;2023-05-16T06:36:56;3.03;;;1.30;;
15876;SDS011;8037;51.666;7.834;2023-05-16T06:39:22;12.47;;;1.87;;
15876;SDS011;8037;51.666;7.834;2023-05-16T06:41:48;7.73;;;2.30;;
15876;SDS011;8037;51.666;7.834;2023-05-16T06:44:14;4.10;;;1.53;;
15876;SDS011;8037;51.666;7.834;2023-05-16T06:46:41;3.97;;;1.90;;
15876;SDS011;8037;51.666;7.834;2023-05-16T06:49:07;6.50;;;2.67;;
15876;SDS011;8037;51.666;7.834;2023-05-16T06:51:33;3.87;;;1.23;;
15876;SDS011;8037;51.666;7.834;2023-05-16T06:53:59;9.73;;;1.40;;
15876;SDS011;8037;51.666;7.834;2023-05-16T06:56:25;5.37;;;1.27;;
15876;SDS011;8037;51.666;7.834;2023-05-16T06:58:52;1.60;;;1.13;;
15876;SDS011;8037;51.666;7.834;2023-05-16T07:01:18;5.20;;;1.37;;
15876;SDS011;8037;51.666;7.834;2023-05-16T07:03:44;7.53;;;1.73;;
15876;SDS011;8037;51.666;7.834;2023-05-16T07:06:10;3.83;;;0.93;;
15876;SDS011;8037;51.666;7.834;2023-05-16T07:08:36;7.30;;;1.20;;
15876;SDS011;8037;51.666;7.834;2023-05-16T07:11:02;3.07;;;1.10;;
15876;SDS011;8037;51.666;7.834;2023-05-16T07:13:28;6.43;;;1.50;;
15876;SDS011;8037;51.666;7.834;2023-05-16T07:15:54;3.33;;;1.23;;
15876;SDS011;8037;51.666;7.834;2023-05-16T07:18:20;3.87;;;0.93;;
15876;SDS011;8037;51.666;7.834;2023-05-16T07:20:46;6.80;;;1.50;;
15876;SDS011;8037;51.666;7.834;2023-05-16T07:23:12;4.20;;;1.20;;
15876;SDS011;8037;51.666;7.834;2023-05-16T07:25:38;10.30;;;0.90;;
15876;SDS011;8037;51.666;7.834;2023-05-16T07:28:04;6.23;;;1.10;;
15876;SDS011;8037;51.666;7.834;2023-05-16T07:30:30;17.73;;;2.90;;
15876;SDS011;8037;51.666;7.834;2023-05-16T07:32:56;4.20;;;1.40;;
15876;SDS011;8037;51.666;7.834;2023-05-16T07:35:22;6.10;;;0.87;;
15876;SDS011;8037;51.666;7.834;2023-05-16T07:37:48;11.80;;;1.60;;
15876;SDS011;8037;51.666;7.834;2023-05-16T07:40:14;4.17;;;0.80;;
15876;SDS011;8037;51.666;7.834;2023-05-16T07:42:42;3.83;;;1.20;;
15876;SDS011;8037;51.666;7.834;2023-05-16T07:45:08;3.00;;;1.03;;
15876;SDS011;8037;51.666;7.834;2023-05-16T07:47:34;10.37;;;1.43;;
15876;SDS011;8037;51.666;7.834;2023-05-16T07:50:00;1.80;;;0.90;;
15876;SDS011;8037;51.666;7.834;2023-05-16T07:52:26;6.40;;;0.77;;
15876;SDS011;8037;51.666;7.834;2023-05-16T07:54:52;2.43;;;0.97;;
15876;SDS011;8037;51.666;7.834;2023-05-16T07:57:18;3.33;;;1.20;;
15876;SDS011;8037;51.666;7.834;2023-05-16T07:59:44;9.23;;;1.60;;
15876;SDS011;8037;51.666;7.834;2023-05-16T08:02:10;3.63;;;0.80;;
15876;SDS011;8037;51.666;7.834;2023-05-16T08:04:36;10.63;;;1.60;;
15876;SDS011;8037;51.666;7.834;2023-05-16T08:07:02;1.60;;;0.83;;
15876;SDS011;8037;51.666;7.834;2023-05-16T08:09:28;2.97;;;1.23;;
15876;SDS011;8037;51.666;7.834;2023-05-16T08:11:55;3.77;;;0.97;;
15876;SDS011;8037;51.666;7.834;2023-05-16T08:14:21;3.37;;;1.60;;
15876;SDS011;8037;51.666;7.834;2023-05-16T08:16:47;1.90;;;0.97;;
15876;SDS011;8037;51.666;7.834;2023-05-16T08:19:13;3.87;;;2.00;;
15876;SDS011;8037;51.666;7.834;2023-05-16T08:21:39;3.70;;;1.07;;
15876;SDS011;8037;51.666;7.834;2023-05-16T08:24:05;10.43;;;1.57;;
15876;SDS011;8037;51.666;7.834;2023-05-16T08:26:31;2.60;;;1.30;;
15876;SDS011;8037;51.666;7.834;2023-05-16T08:28:57;2.50;;;1.27;;
15876;SDS011;8037;51.666;7.834;2023-05-16T08:31:23;4.80;;;1.20;;
15876;SDS011;8037;51.666;7.834;2023-05-16T08:33:49;4.67;;;0.77;;
15876;SDS011;8037;51.666;7.834;2023-05-16T08:36:15;4.10;;;0.90;;
15876;SDS011;8037;51.666;7.834;2023-05-16T08:38:43;3.03;;;1.00;;
15876;SDS011;8037;51.666;7.834;2023-05-16T08:41:09;2.30;;;0.90;;
15876;SDS011;8037;51.666;7.834;2023-05-16T08:43:35;6.93;;;1.97;;
15876;SDS011;8037;51.666;7.834;2023-05-16T08:46:01;1.53;;;0.80;;
15876;SDS011;8037;51.666;7.834;2023-05-16T08:48:27;5.13;;;1.20;;
15876;SDS011;8037;51.666;7.834;2023-05-16T08:50:55;8.20;;;1.20;;
15876;SDS011;8037;51.666;7.834;2023-05-16T08:53:24;23.17;;;3.77;;
15876;SDS011;8037;51.666;7.834;2023-05-16T08:55:51;27.53;;;2.50;;
15876;SDS011;8037;51.666;7.834;2023-05-16T08:58:18;6.53;;;1.90;;
15876;SDS011;8037;51.666;7.834;2023-05-16T09:00:44;11.83;;;1.93;;
15876;SDS011;8037;51.666;7.834;2023-05-16T09:03:10;5.47;;;1.63;;
15876;SDS011;8037;51.666;7.834;2023-05-16T09:05:36;6.10;;;1.30;;
15876;SDS011;8037;51.666;7.834;2023-05-16T09:08:02;2.30;;;1.20;;
15876;SDS011;8037;51.666;7.834;2023-05-16T09:10:28;46.63;;;6.40;;
15876;SDS011;8037;51.666;7.834;2023-05-16T09:12:54;3.90;;;0.93;;
15876;SDS011;8037;51.666;7.834;2023-05-16T09:15:20;9.67;;;3.20;;
15876;SDS011;8037;51.666;7.834;2023-05-16T09:17:46;3.30;;;1.33;;
15876;SDS011;8037;51.666;7.834;2023-05-16T09:22:39;8.77;;;1.70;;
15876;SDS011;8037;51.666;7.834;2023-05-16T09:25:06;3.77;;;1.00;;
15876;SDS011;8037;51.666;7.834;2023-05-16T09:27:32;27.33;;;4.53;;
15876;SDS011;8037;51.666;7.834;2023-05-16T09:29:58;37.67;;;4.43;;
15876;SDS011;8037;51.666;7.834;2023-05-16T09:32:24;16.27;;;1.63;;
15876;SDS011;8037;51.666;7.834;2023-05-16T09:34:51;4.10;;;0.87;;
15876;SDS011;8037;51.666;7.834;2023-05-16T09:37:18;5.23;;;1.20;;
15876;SDS011;8037;51.666;7.834;2023-05-16T09:39:48;8.13;;;1.03;;
15876;SDS011;8037;51.666;7.834;2023-05-16T09:42:15;0.67;;;0.67;;
15876;SDS011;8037;51.666;7.834;2023-05-16T09:44:45;1.60;;;0.80;;
15876;SDS011;8037;51.666;7.834;2023-05-16T09:47:14;4.30;;;0.73;;
15876;SDS011;8037;51.666;7.834;2023-05-16T09:49:41;4.67;;;0.70;;
15876;SDS011;8037;51.666;7.834;2023-05-16T09:52:07;3.90;;;1.50;;
15876;SDS011;8037;51.666;7.834;2023-05-16T09:54:34;0.70;;;0.50;;
15876;SDS011;8037;51.666;7.834;2023-05-16T09:57:00;9.43;;;0.80;;
15876;SDS011;8037;51.666;7.834;2023-05-16T09:59:29;0.93;;;0.47;;
15876;SDS011;8037;51.666;7.834;2023-05-16T10:01:56;2.93;;;1.33;;
15876;SDS011;8037;51.666;7.834;2023-05-16T10:04:25;12.43;;;1.10;;
15876;SDS011;8037;51.666;7.834;2023-05-16T10:06:51;8.60;;;0.97;;
15876;SDS011;8037;51.666;7.834;2023-05-16T10:09:22;3.77;;;0.70;;
15876;SDS011;8037;51.666;7.834;2023-05-16T10:11:48;0.63;;;0.50;;
15876;SDS011;8037;51.666;7.834;2023-05-16T10:14:16;1.10;;;0.60;;
15876;SDS011;8037;51.666;7.834;2023-05-16T10:16:43;2.63;;;0.90;;
15876;SDS011;8037;51.666;7.834;2023-05-16T10:19:11;1.53;;;0.80;;
15876;SDS011;8037;51.666;7.834;2023-05-16T10:21:38;3.90;;;1.03;;
15876;SDS011;8037;51.666;7.834;2023-05-16T10:24:05;1.90;;;0.60;;
15876;SDS011;8037;51.666;7.834;2023-05-16T10:26:32;1.53;;;0.50;;
15876;SDS011;8037;51.666;7.834;2023-05-16T10:28:59;1.73;;;0.67;;
15876;SDS011;8037;51.666;7.834;2023-05-16T10:31:26;2.33;;;0.60;;
15876;SDS011;8037;51.666;7.834;2023-05-16T10:33:54;3.37;;;0.80;;
15876;SDS011;8037;51.666;7.834;2023-05-16T10:36:20;1.50;;;0.50;;
15876;SDS011;8037;51.666;7.834;2023-05-16T10:38:46;2.30;;;0.70;;
15876;SDS011;8037;51.666;7.834;2023-05-16T10:41:13;4.27;;;0.97;;
15876;SDS011;8037;51.666;7.834;2023-05-16T10:43:39;1.83;;;0.70;;
15876;SDS011;8037;51.666;7.834;2023-05-16T10:46:09;1.47;;;0.77;;
15876;SDS011;8037;51.666;7.834;2023-05-16T10:48:36;3.50;;;0.90;;
15876;SDS011;8037;51.666;7.834;2023-05-16T10:51:03;4.17;;;0.77;;
15876;SDS011;8037;51.666;7.834;2023-05-16T10:53:34;3.20;;;0.83;;
15876;SDS011;8037;51.666;7.834;2023-05-16T11:06:25;3.93;;;0.93;;
15876;SDS011;8037;51.666;7.834;2023-05-16T11:11:40;2.40;;;0.60;;
15876;SDS011;8037;51.666;7.834;2023-05-16T11:14:06;0.67;;;0.57;;
15876;SDS011;8037;51.666;7.834;2023-05-16T11:16:33;2.90;;;1.20;;
15876;SDS011;8037;51.666;7.834;2023-05-16T11:19:06;2.97;;;1.00;;
15876;SDS011;8037;51.666;7.834;2023-05-16T11:24:47;1.70;;;0.80;;
15876;SDS011;8037;51.666;7.834;2023-05-16T11:27:13;2.10;;;0.77;;
15876;SDS011;8037;51.666;7.834;2023-05-16T11:29:45;1.13;;;0.50;;
15876;SDS011;8037;51.666;7.834;2023-05-16T11:32:10;2.90;;;0.80;;
15876;SDS011;8037;51.666;7.834;2023-05-16T11:34:36;5.97;;;0.83;;
15876;SDS011;8037;51.666;7.834;2023-05-16T11:37:03;5.17;;;0.67;;
15876;SDS011;8037;51.666;7.834;2023-05-16T11:39:30;3.67;;;0.70;;
15876;SDS011;8037;51.666;7.834;2023-05-16T11:41:56;4.03;;;0.83;;
15876;SDS011;8037;51.666;7.834;2023-05-16T11:44:22;14.03;;;1.10;;
15876;SDS011;8037;51.666;7.834;2023-05-16T11:46:48;4.20;;;0.90;;
15876;SDS011;8037;51.666;7.834;2023-05-16T11:49:14;6.43;;;1.10;;
15876;SDS011;8037;51.666;7.834;2023-05-16T11:51:42;3.33;;;0.60;;
15876;SDS011;8037;51.666;7.834;2023-05-16T11:54:08;0.80;;;0.57;;
15876;SDS011;8037;51.666;7.834;2023-05-16T11:56:35;1.90;;;0.60;;
15876;SDS011;8037;51.666;7.834;2023-05-16T11:59:01;1.10;;;0.80;;
15876;SDS011;8037;51.666;7.834;2023-05-16T12:01:30;4.00;;;0.87;;
15876;SDS011;8037;51.666;7.834;2023-05-16T12:03:57;0.60;;;0.60;;
15876;SDS011;8037;51.666;7.834;2023-05-16T12:06:23;3.27;;;0.70;;
15876;SDS011;8037;51.666;7.834;2023-05-16T12:08:50;3.03;;;1.10;;
15876;SDS011;8037;51.666;7.834;2023-05-16T12:11:16;0.80;;;0.50;;
15876;SDS011;8037;51.666;7.834;2023-05-16T12:13:42;2.00;;;1.03;;
15876;SDS011;8037;51.666;7.834;2023-05-16T12:16:08;1.27;;;0.60;;
15876;SDS011;8037;51.666;7.834;2023-05-16T12:18:35;2.00;;;0.90;;
15876;SDS011;8037;51.666;7.834;2023-05-16T12:21:03;2.50;;;0.70;;
15876;SDS011;8037;51.666;7.834;2023-05-16T12:23:29;2.43;;;0.70;;
15876;SDS011;8037;51.666;7.834;2023-05-16T12:25:57;1.00;;;0.73;;
15876;SDS011;8037;51.666;7.834;2023-05-16T12:28:25;1.43;;;0.70;;
15876;SDS011;8037;51.666;7.834;2023-05-16T12:30:55;4.37;;;0.77;;
15876;SDS011;8037;51.666;7.834;2023-05-16T12:33:21;2.37;;;0.73;;
15876;SDS011;8037;51.666;7.834;2023-05-16T12:35:47;0.77;;;0.50;;
15876;SDS011;8037;51.666;7.834;2023-05-16T12:38:15;1.60;;;0.60;;
15876;SDS011;8037;51.666;7.834;2023-05-16T12:40:42;6.53;;;1.03;;
15876;SDS011;8037;51.666;7.834;2023-05-16T12:43:14;1.83;;;0.97;;
15876;SDS011;8037;51.666;7.834;2023-05-16T12:45:41;1.87;;;1.17;;
15876;SDS011;8037;51.666;7.834;2023-05-16T12:48:13;2.60;;;1.03;;
15876;SDS011;8037;51.666;7.834;2023-05-16T12:50:39;3.67;;;0.80;;
15876;SDS011;8037;51.666;7.834;2023-05-16T12:53:09;1.87;;;0.53;;
15876;SDS011;8037;51.666;7.834;2023-05-16T12:55:38;4.30;;;0.70;;
15876;SDS011;8037;51.666;7.834;2023-05-16T12:58:05;0.87;;;0.63;;
15876;SDS011;8037;51.666;7.834;2023-05-16T13:00:31;0.90;;;0.70;;
15876;SDS011;8037;51.666;7.834;2023-05-16T13:02:57;2.40;;;1.23;;
15876;SDS011;8037;51.666;7.834;2023-05-16T13:05:23;1.50;;;0.80;;
15876;SDS011;8037;51.666;7.834;2023-05-16T13:07:48;7.33;;;1.20;;
15876;SDS011;8037;51.666;7.834;2023-05-16T13:10:18;1.53;;;1.00;;
15876;SDS011;8037;51.666;7.834;2023-05-16T13:12:44;2.80;;;0.60;;
15876;SDS011;8037;51.666;7.834;2023-05-16T13:15:11;0.70;;;0.50;;
15876;SDS011;8037;51.666;7.834;2023-05-16T13:17:38;0.60;;;0.60;;
15876;SDS011;8037;51.666;7.834;2023-05-16T13:20:04;6.00;;;0.93;;
15876;SDS011;8037;51.666;7.834;2023-05-16T13:22:36;8.40;;;0.57;;
15876;SDS011;8037;51.666;7.834;2023-05-16T13:25:02;1.33;;;0.70;;
15876;SDS011;8037;51.666;7.834;2023-05-16T13:27:29;4.07;;;0.60;;
15876;SDS011;8037;51.666;7.834;2023-05-16T13:29:55;0.63;;;0.50;;
15876;SDS011;8037;51.666;7.834;2023-05-16T13:32:22;1.27;;;0.50;;
15876;SDS011;8037;51.666;7.834;2023-05-16T13:34:49;4.00;;;0.77;;
15876;SDS011;8037;51.666;7.834;2023-05-16T13:37:14;2.40;;;0.90;;
15876;SDS011;8037;51.666;7.834;2023-05-16T13:39:40;1.43;;;0.50;;
15876;SDS011;8037;51.666;7.834;2023-05-16T13:42:06;1.67;;;0.60;;
15876;SDS011;8037;51.666;7.834;2023-05-16T13:44:32;2.03;;;0.77;;
15876;SDS011;8037;51.666;7.834;2023-05-16T13:46:58;2.63;;;0.80;;
15876;SDS011;8037;51.666;7.834;2023-05-16T13:49:24;4.07;;;0.63;;
15876;SDS011;8037;51.666;7.834;2023-05-16T13:51:50;4.00;;;0.97;;
15876;SDS011;8037;51.666;7.834;2023-05-16T13:54:16;0.70;;;0.70;;
15876;SDS011;8037;51.666;7.834;2023-05-16T13:56:42;0.80;;;0.50;;
15876;SDS011;8037;51.666;7.834;2023-05-16T13:59:08;1.80;;;0.60;;
15876;SDS011;8037;51.666;7.834;2023-05-16T14:01:34;1.63;;;0.60;;
15876;SDS011;8037;51.666;7.834;2023-05-16T14:04:00;1.10;;;0.80;;
15876;SDS011;8037;51.666;7.834;2023-05-16T14:06:26;1.00;;;0.70;;
15876;SDS011;8037;51.666;7.834;2023-05-16T14:08:52;2.30;;;1.00;;
15876;SDS011;8037;51.666;7.834;2023-05-16T14:11:18;4.23;;;0.90;;
15876;SDS011;8037;51.666;7.834;2023-05-16T14:13:47;2.33;;;0.60;;
15876;SDS011;8037;51.666;7.834;2023-05-16T14:16:13;2.53;;;0.90;;
15876;SDS011;8037;51.666;7.834;2023-05-16T14:18:39;1.53;;;0.70;;
15876;SDS011;8037;51.666;7.834;2023-05-16T14:21:05;3.03;;;0.67;;
15876;SDS011;8037;51.666;7.834;2023-05-16T14:23:31;3.40;;;0.80;;
15876;SDS011;8037;51.666;7.834;2023-05-16T14:25:57;3.70;;;1.37;;
15876;SDS011;8037;51.666;7.834;2023-05-16T14:28:23;4.00;;;0.63;;
15876;SDS011;8037;51.666;7.834;2023-05-16T14:30:49;0.87;;;0.70;;
15876;SDS011;8037;51.666;7.834;2023-05-16T14:33:15;8.70;;;0.60;;
15876;SDS011;8037;51.666;7.834;2023-05-16T14:35:41;2.30;;;0.83;;
15876;SDS011;8037;51.666;7.834;2023-05-16T14:38:06;1.17;;;0.80;;
15876;SDS011;8037;51.666;7.834;2023-05-16T14:40:32;3.27;;;0.90;;
15876;SDS011;8037;51.666;7.834;2023-05-16T14:42:58;2.40;;;0.67;;
15876;SDS011;8037;51.666;7.834;2023-05-16T14:45:24;1.27;;;0.70;;
15876;SDS011;8037;51.666;7.834;2023-05-16T14:47:50;1.00;;;0.70;;
15876;SDS011;8037;51.666;7.834;2023-05-16T14:50:16;0.60;;;0.57;;
15876;SDS011;8037;51.666;7.834;2023-05-16T14:52:42;1.97;;;1.30;;
15876;SDS011;8037;51.666;7.834;2023-05-16T14:55:09;1.33;;;0.50;;
15876;SDS011;8037;51.666;7.834;2023-05-16T14:57:35;0.60;;;0.40;;
15876;SDS011;8037;51.666;7.834;2023-05-16T15:00:01;2.63;;;1.53;;
15876;SDS011;8037;51.666;7.834;2023-05-16T15:02:28;1.90;;;0.83;;
15876;SDS011;8037;51.666;7.834;2023-05-16T15:04:54;0.97;;;0.50;;
15876;SDS011;8037;51.666;7.834;2023-05-16T15:07:20;1.10;;;0.80;;
15876;SDS011;8037;51.666;7.834;2023-05-16T15:09:46;1.97;;;0.97;;
15876;SDS011;8037;51.666;7.834;2023-05-16T15:12:12;3.07;;;0.80;;
15876;SDS011;8037;51.666;7.834;2023-05-16T15:14:39;4.50;;;1.13;;
15876;SDS011;8037;51.666;7.834;2023-05-16T15:17:05;5.80;;;0.83;;
15876;SDS011;8037;51.666;7.834;2023-05-16T15:19:31;6.73;;;1.43;;
15876;SDS011;8037;51.666;7.834;2023-05-16T15:21:57;2.70;;;0.80;;